sensor_id;sensor_type;location;lat;lon;timestamp;P1;durP1;ratioP1;P2;durP2;ratioP2
9436;SDS011;4757;59.334;18.034;2022-12-20T00:01:34;11.93;;;8.37;;
9436;SDS011;4757;59.334;18.034;2022-12-20T00:04:02;11.23;;;7.70;;
9436;SDS011;4757;59.334;18.034;2022-12-20T00:06:46;8.80;;;7.37;;
9436;SDS011;4757;59.334;18.034;2022-12-20T00:09:13;13.67;;;8.60;;
9436;SDS011;4757;59.334;18.034;2022-12-20T00:11:40;11.07;;;8.43;;
9436;SDS011;4757;59.334;18.034;2022-12-20T00:14:08;10.20;;;8.47;;
9436;SDS011;4757;59.334;18.034;2022-12-20T00:16:37;11.50;;;8.90;;
9436;SDS011;4757;59.334;18.034;2022-12-20T00:19:05;11.50;;;8.87;;
9436;SDS011;4757;59.334;18.034;2022-12-20T00:21:33;10.33;;;7.80;;
9436;SDS011;4757;59.334;18.034;2022-12-20T00:24:01;13.23;;;9.73;;
9436;SDS011;4757;59.334;18.034;2022-12-20T00:26:29;12.17;;;9.30;;
9436;SDS011;4757;59.334;18.034;2022-12-20T00:28:58;9.77;;;8.03;;
9436;SDS011;4757;59.334;18.034;2022-12-20T00:31:27;11.40;;;8.43;;
9436;SDS011;4757;59.334;18.034;2022-12-20T00:33:56;13.87;;;9.83;;
9436;SDS011;4757;59.334;18.034;2022-12-20T00:36:24;10.27;;;8.80;;
9436;SDS011;4757;59.334;18.034;2022-12-20T00:38:54;11.97;;;9.23;;
9436;SDS011;4757;59.334;18.034;2022-12-20T00:41:22;14.77;;;10.90;;
9436;SDS011;4757;59.334;18.034;2022-12-20T00:43:51;12.87;;;9.90;;
9436;SDS011;4757;59.334;18.034;2022-12-20T00:46:20;15.33;;;10.27;;
9436;SDS011;4757;59.334;18.034;2022-12-20T00:48:49;15.10;;;11.03;;
9436;SDS011;4757;59.334;18.034;2022-12-20T00:51:21;13.10;;;11.50;;
9436;SDS011;4757;59.334;18.034;2022-12-20T00:53:52;14.60;;;10.83;;
9436;SDS011;4757;59.334;18.034;2022-12-20T00:56:20;14.67;;;11.50;;
9436;SDS011;4757;59.334;18.034;2022-12-20T00:58:47;17.33;;;11.30;;
9436;SDS011;4757;59.334;18.034;2022-12-20T01:01:19;13.03;;;10.43;;
9436;SDS011;4757;59.334;18.034;2022-12-20T01:03:48;12.77;;;9.93;;
9436;SDS011;4757;59.334;18.034;2022-12-20T01:06:16;15.83;;;11.40;;
9436;SDS011;4757;59.334;18.034;2022-12-20T01:08:44;15.43;;;11.10;;
9436;SDS011;4757;59.334;18.034;2022-12-20T01:11:16;15.43;;;11.17;;
9436;SDS011;4757;59.334;18.034;2022-12-20T01:13:49;14.33;;;10.70;;
9436;SDS011;4757;59.334;18.034;2022-12-20T01:16:19;15.97;;;10.57;;
9436;SDS011;4757;59.334;18.034;2022-12-20T01:18:48;17.40;;;10.70;;
9436;SDS011;4757;59.334;18.034;2022-12-20T01:21:16;17.57;;;11.30;;
9436;SDS011;4757;59.334;18.034;2022-12-20T01:23:45;14.60;;;11.03;;
9436;SDS011;4757;59.334;18.034;2022-12-20T01:26:14;17.60;;;11.43;;
9436;SDS011;4757;59.334;18.034;2022-12-20T01:28:43;17.50;;;12.60;;
9436;SDS011;4757;59.334;18.034;2022-12-20T01:31:14;21.70;;;12.10;;
9436;SDS011;4757;59.334;18.034;2022-12-20T01:33:43;13.47;;;10.77;;
9436;SDS011;4757;59.334;18.034;2022-12-20T01:36:12;16.43;;;11.50;;
9436;SDS011;4757;59.334;18.034;2022-12-20T01:38:41;16.80;;;12.50;;
9436;SDS011;4757;59.334;18.034;2022-12-20T01:41:13;16.63;;;12.10;;
9436;SDS011;4757;59.334;18.034;2022-12-20T01:46:11;16.50;;;12.00;;
9436;SDS011;4757;59.334;18.034;2022-12-20T01:48:39;14.40;;;11.50;;
9436;SDS011;4757;59.334;18.034;2022-12-20T01:51:09;18.47;;;12.00;;
9436;SDS011;4757;59.334;18.034;2022-12-20T01:53:36;16.87;;;11.30;;
9436;SDS011;4757;59.334;18.034;2022-12-20T01:56:04;19.00;;;12.87;;
9436;SDS011;4757;59.334;18.034;2022-12-20T01:58:33;17.70;;;12.30;;
9436;SDS011;4757;59.334;18.034;2022-12-20T02:01:02;18.70;;;12.07;;
9436;SDS011;4757;59.334;18.034;2022-12-20T02:03:29;18.23;;;12.00;;
9436;SDS011;4757;59.334;18.034;2022-12-20T02:06:04;17.03;;;12.43;;
9436;SDS011;4757;59.334;18.034;2022-12-20T02:08:41;19.27;;;12.93;;
9436;SDS011;4757;59.334;18.034;2022-12-20T02:11:17;18.43;;;13.20;;
9436;SDS011;4757;59.334;18.034;2022-12-20T02:13:55;19.17;;;12.90;;
9436;SDS011;4757;59.334;18.034;2022-12-20T02:16:35;21.70;;;13.97;;
9436;SDS011;4757;59.334;18.034;2022-12-20T02:19:34;21.53;;;13.67;;
9436;SDS011;4757;59.334;18.034;2022-12-20T02:25:13;20.03;;;12.43;;
9436;SDS011;4757;59.334;18.034;2022-12-20T02:27:58;16.87;;;12.70;;
9436;SDS011;4757;59.334;18.034;2022-12-20T02:30:37;18.80;;;12.90;;
9436;SDS011;4757;59.334;18.034;2022-12-20T02:33:09;26.67;;;16.00;;
9436;SDS011;4757;59.334;18.034;2022-12-20T02:35:38;20.97;;;11.90;;
9436;SDS011;4757;59.334;18.034;2022-12-20T02:41:10;17.90;;;13.13;;
9436;SDS011;4757;59.334;18.034;2022-12-20T02:43:38;21.57;;;12.60;;
9436;SDS011;4757;59.334;18.034;2022-12-20T02:46:27;21.23;;;13.43;;
9436;SDS011;4757;59.334;18.034;2022-12-20T02:48:55;19.63;;;14.00;;
9436;SDS011;4757;59.334;18.034;2022-12-20T02:51:26;21.67;;;13.30;;
9436;SDS011;4757;59.334;18.034;2022-12-20T02:53:56;19.40;;;12.13;;
9436;SDS011;4757;59.334;18.034;2022-12-20T02:59:01;19.13;;;12.00;;
9436;SDS011;4757;59.334;18.034;2022-12-20T03:01:33;21.53;;;13.73;;
9436;SDS011;4757;59.334;18.034;2022-12-20T03:04:04;20.70;;;13.83;;
9436;SDS011;4757;59.334;18.034;2022-12-20T03:06:33;18.13;;;10.23;;
9436;SDS011;4757;59.334;18.034;2022-12-20T03:09:00;20.87;;;13.43;;
9436;SDS011;4757;59.334;18.034;2022-12-20T03:11:28;20.00;;;12.93;;
9436;SDS011;4757;59.334;18.034;2022-12-20T03:13:56;15.63;;;10.93;;
9436;SDS011;4757;59.334;18.034;2022-12-20T03:16:23;17.93;;;12.23;;
9436;SDS011;4757;59.334;18.034;2022-12-20T03:18:50;23.13;;;14.10;;
9436;SDS011;4757;59.334;18.034;2022-12-20T03:21:17;21.63;;;13.37;;
9436;SDS011;4757;59.334;18.034;2022-12-20T03:23:44;17.67;;;11.73;;
9436;SDS011;4757;59.334;18.034;2022-12-20T03:26:11;17.53;;;12.17;;
9436;SDS011;4757;59.334;18.034;2022-12-20T03:28:38;18.17;;;11.03;;
9436;SDS011;4757;59.334;18.034;2022-12-20T03:31:06;19.40;;;10.47;;
9436;SDS011;4757;59.334;18.034;2022-12-20T03:33:33;20.23;;;12.63;;
9436;SDS011;4757;59.334;18.034;2022-12-20T03:36:00;17.80;;;12.23;;
9436;SDS011;4757;59.334;18.034;2022-12-20T03:38:27;18.20;;;12.67;;
9436;SDS011;4757;59.334;18.034;2022-12-20T03:40:54;20.57;;;11.80;;
9436;SDS011;4757;59.334;18.034;2022-12-20T03:43:21;18.30;;;13.43;;
9436;SDS011;4757;59.334;18.034;2022-12-20T03:45:48;21.50;;;12.60;;
9436;SDS011;4757;59.334;18.034;2022-12-20T03:48:16;17.77;;;12.20;;
9436;SDS011;4757;59.334;18.034;2022-12-20T03:50:43;20.67;;;13.57;;
9436;SDS011;4757;59.334;18.034;2022-12-20T03:53:10;21.87;;;14.03;;
9436;SDS011;4757;59.334;18.034;2022-12-20T03:55:38;17.77;;;13.60;;
9436;SDS011;4757;59.334;18.034;2022-12-20T03:58:10;22.90;;;14.17;;
9436;SDS011;4757;59.334;18.034;2022-12-20T04:00:37;22.47;;;13.77;;
9436;SDS011;4757;59.334;18.034;2022-12-20T04:03:04;19.53;;;12.00;;
9436;SDS011;4757;59.334;18.034;2022-12-20T04:05:31;19.63;;;13.03;;
9436;SDS011;4757;59.334;18.034;2022-12-20T04:07:58;20.10;;;13.00;;
9436;SDS011;4757;59.334;18.034;2022-12-20T04:10:25;17.37;;;11.13;;
9436;SDS011;4757;59.334;18.034;2022-12-20T04:12:52;21.77;;;12.73;;
9436;SDS011;4757;59.334;18.034;2022-12-20T04:15:22;20.73;;;12.90;;
9436;SDS011;4757;59.334;18.034;2022-12-20T04:17:51;21.47;;;13.03;;
9436;SDS011;4757;59.334;18.034;2022-12-20T04:20:18;18.43;;;12.17;;
9436;SDS011;4757;59.334;18.034;2022-12-20T04:22:45;17.17;;;11.17;;
9436;SDS011;4757;59.334;18.034;2022-12-20T04:25:17;16.97;;;11.17;;
9436;SDS011;4757;59.334;18.034;2022-12-20T04:27:45;20.13;;;12.80;;
9436;SDS011;4757;59.334;18.034;2022-12-20T04:30:12;15.87;;;11.00;;
9436;SDS011;4757;59.334;18.034;2022-12-20T04:32:40;14.87;;;10.13;;
9436;SDS011;4757;59.334;18.034;2022-12-20T04:35:07;16.13;;;10.80;;
9436;SDS011;4757;59.334;18.034;2022-12-20T04:37:34;15.57;;;12.10;;
9436;SDS011;4757;59.334;18.034;2022-12-20T04:40:02;19.40;;;13.57;;
9436;SDS011;4757;59.334;18.034;2022-12-20T04:42:29;16.80;;;10.23;;
9436;SDS011;4757;59.334;18.034;2022-12-20T04:44:56;18.77;;;11.83;;
9436;SDS011;4757;59.334;18.034;2022-12-20T04:47:23;15.90;;;11.63;;
9436;SDS011;4757;59.334;18.034;2022-12-20T04:49:50;17.97;;;11.60;;
9436;SDS011;4757;59.334;18.034;2022-12-20T04:52:17;20.60;;;11.73;;
9436;SDS011;4757;59.334;18.034;2022-12-20T04:55:12;17.30;;;12.23;;
9436;SDS011;4757;59.334;18.034;2022-12-20T04:57:39;16.70;;;11.13;;
9436;SDS011;4757;59.334;18.034;2022-12-20T05:00:06;15.93;;;10.30;;
9436;SDS011;4757;59.334;18.034;2022-12-20T05:02:34;17.50;;;10.87;;
9436;SDS011;4757;59.334;18.034;2022-12-20T05:05:01;12.77;;;8.70;;
9436;SDS011;4757;59.334;18.034;2022-12-20T05:07:28;16.00;;;10.67;;
9436;SDS011;4757;59.334;18.034;2022-12-20T05:09:55;13.37;;;10.07;;
9436;SDS011;4757;59.334;18.034;2022-12-20T05:12:22;17.40;;;10.67;;
9436;SDS011;4757;59.334;18.034;2022-12-20T05:14:50;18.00;;;10.13;;
9436;SDS011;4757;59.334;18.034;2022-12-20T05:17:17;15.33;;;9.93;;
9436;SDS011;4757;59.334;18.034;2022-12-20T05:19:44;14.47;;;10.37;;
9436;SDS011;4757;59.334;18.034;2022-12-20T05:22:11;15.87;;;10.23;;
9436;SDS011;4757;59.334;18.034;2022-12-20T05:24:57;15.27;;;9.20;;
9436;SDS011;4757;59.334;18.034;2022-12-20T05:27:43;13.37;;;9.67;;
9436;SDS011;4757;59.334;18.034;2022-12-20T05:30:10;13.53;;;9.20;;
9436;SDS011;4757;59.334;18.034;2022-12-20T05:32:37;15.60;;;9.23;;
9436;SDS011;4757;59.334;18.034;2022-12-20T05:35:06;14.07;;;9.37;;
9436;SDS011;4757;59.334;18.034;2022-12-20T05:37:34;15.90;;;10.50;;
9436;SDS011;4757;59.334;18.034;2022-12-20T05:40:01;13.20;;;8.10;;
9436;SDS011;4757;59.334;18.034;2022-12-20T05:42:32;12.53;;;8.97;;
9436;SDS011;4757;59.334;18.034;2022-12-20T05:45:01;12.07;;;8.87;;
9436;SDS011;4757;59.334;18.034;2022-12-20T05:47:30;13.43;;;7.87;;
9436;SDS011;4757;59.334;18.034;2022-12-20T05:49:59;12.27;;;7.60;;
9436;SDS011;4757;59.334;18.034;2022-12-20T05:52:26;12.77;;;7.60;;
9436;SDS011;4757;59.334;18.034;2022-12-20T05:54:53;12.40;;;7.30;;
9436;SDS011;4757;59.334;18.034;2022-12-20T05:57:20;10.10;;;7.70;;
9436;SDS011;4757;59.334;18.034;2022-12-20T05:59:48;14.40;;;7.07;;
9436;SDS011;4757;59.334;18.034;2022-12-20T06:02:15;10.20;;;7.43;;
9436;SDS011;4757;59.334;18.034;2022-12-20T06:04:42;12.43;;;7.67;;
9436;SDS011;4757;59.334;18.034;2022-12-20T06:07:09;9.10;;;6.67;;
9436;SDS011;4757;59.334;18.034;2022-12-20T06:09:36;14.07;;;7.13;;
9436;SDS011;4757;59.334;18.034;2022-12-20T06:12:03;9.93;;;6.47;;
9436;SDS011;4757;59.334;18.034;2022-12-20T06:14:33;7.80;;;6.20;;
9436;SDS011;4757;59.334;18.034;2022-12-20T06:17:01;9.60;;;7.40;;
9436;SDS011;4757;59.334;18.034;2022-12-20T06:19:28;9.63;;;6.47;;
9436;SDS011;4757;59.334;18.034;2022-12-20T06:21:57;7.60;;;6.03;;
9436;SDS011;4757;59.334;18.034;2022-12-20T06:24:24;10.13;;;6.33;;
9436;SDS011;4757;59.334;18.034;2022-12-20T06:26:52;8.63;;;6.13;;
9436;SDS011;4757;59.334;18.034;2022-12-20T06:29:20;8.27;;;6.37;;
9436;SDS011;4757;59.334;18.034;2022-12-20T06:31:47;8.47;;;6.17;;
9436;SDS011;4757;59.334;18.034;2022-12-20T06:34:14;9.60;;;6.97;;
9436;SDS011;4757;59.334;18.034;2022-12-20T06:36:41;12.67;;;7.33;;
9436;SDS011;4757;59.334;18.034;2022-12-20T06:39:08;9.53;;;6.70;;
9436;SDS011;4757;59.334;18.034;2022-12-20T06:41:35;10.23;;;6.37;;
9436;SDS011;4757;59.334;18.034;2022-12-20T06:44:03;10.13;;;6.73;;
9436;SDS011;4757;59.334;18.034;2022-12-20T06:46:30;9.73;;;6.03;;
9436;SDS011;4757;59.334;18.034;2022-12-20T06:48:57;10.43;;;7.43;;
9436;SDS011;4757;59.334;18.034;2022-12-20T06:51:24;9.93;;;6.43;;
9436;SDS011;4757;59.334;18.034;2022-12-20T06:53:51;8.93;;;6.70;;
9436;SDS011;4757;59.334;18.034;2022-12-20T06:56:18;8.93;;;6.23;;
9436;SDS011;4757;59.334;18.034;2022-12-20T06:58:45;9.53;;;7.43;;
9436;SDS011;4757;59.334;18.034;2022-12-20T07:01:13;8.73;;;6.67;;
9436;SDS011;4757;59.334;18.034;2022-12-20T07:03:40;10.23;;;6.10;;
9436;SDS011;4757;59.334;18.034;2022-12-20T07:06:07;8.57;;;6.43;;
9436;SDS011;4757;59.334;18.034;2022-12-20T07:08:34;8.77;;;6.33;;
9436;SDS011;4757;59.334;18.034;2022-12-20T07:11:03;8.03;;;5.83;;
9436;SDS011;4757;59.334;18.034;2022-12-20T07:13:31;8.50;;;5.83;;
9436;SDS011;4757;59.334;18.034;2022-12-20T07:16:00;7.00;;;5.13;;
9436;SDS011;4757;59.334;18.034;2022-12-20T07:18:28;8.03;;;5.80;;
9436;SDS011;4757;59.334;18.034;2022-12-20T07:21:00;6.80;;;5.33;;
9436;SDS011;4757;59.334;18.034;2022-12-20T07:23:29;8.50;;;5.97;;
9436;SDS011;4757;59.334;18.034;2022-12-20T07:25:56;6.13;;;5.23;;
9436;SDS011;4757;59.334;18.034;2022-12-20T07:28:26;16.33;;;10.33;;
9436;SDS011;4757;59.334;18.034;2022-12-20T07:30:54;8.77;;;6.67;;
9436;SDS011;4757;59.334;18.034;2022-12-20T07:33:26;12.57;;;7.40;;
9436;SDS011;4757;59.334;18.034;2022-12-20T07:35:58;8.53;;;6.50;;
9436;SDS011;4757;59.334;18.034;2022-12-20T07:38:30;8.63;;;6.53;;
9436;SDS011;4757;59.334;18.034;2022-12-20T07:40:57;8.43;;;5.77;;
9436;SDS011;4757;59.334;18.034;2022-12-20T07:43:24;10.47;;;6.83;;
9436;SDS011;4757;59.334;18.034;2022-12-20T07:45:55;7.70;;;6.07;;
9436;SDS011;4757;59.334;18.034;2022-12-20T07:48:22;6.57;;;5.37;;
9436;SDS011;4757;59.334;18.034;2022-12-20T07:50:51;10.90;;;6.07;;
9436;SDS011;4757;59.334;18.034;2022-12-20T07:53:21;6.17;;;5.33;;
9436;SDS011;4757;59.334;18.034;2022-12-20T07:55:50;7.40;;;4.53;;
9436;SDS011;4757;59.334;18.034;2022-12-20T07:58:19;6.90;;;5.07;;
9436;SDS011;4757;59.334;18.034;2022-12-20T08:00:47;9.33;;;6.60;;
9436;SDS011;4757;59.334;18.034;2022-12-20T08:03:16;9.33;;;5.60;;
9436;SDS011;4757;59.334;18.034;2022-12-20T08:05:52;7.20;;;4.87;;
9436;SDS011;4757;59.334;18.034;2022-12-20T08:08:22;4.20;;;3.67;;
9436;SDS011;4757;59.334;18.034;2022-12-20T08:10:49;8.40;;;4.73;;
9436;SDS011;4757;59.334;18.034;2022-12-20T08:13:17;7.60;;;5.00;;
9436;SDS011;4757;59.334;18.034;2022-12-20T08:15:44;9.60;;;5.83;;
9436;SDS011;4757;59.334;18.034;2022-12-20T08:18:11;8.00;;;5.90;;
9436;SDS011;4757;59.334;18.034;2022-12-20T08:20:38;10.30;;;6.10;;
9436;SDS011;4757;59.334;18.034;2022-12-20T08:23:05;7.47;;;5.97;;
9436;SDS011;4757;59.334;18.034;2022-12-20T08:25:33;8.17;;;5.30;;
9436;SDS011;4757;59.334;18.034;2022-12-20T08:28:06;7.43;;;5.57;;
9436;SDS011;4757;59.334;18.034;2022-12-20T08:30:34;9.20;;;5.50;;
9436;SDS011;4757;59.334;18.034;2022-12-20T08:33:01;6.50;;;5.30;;
9436;SDS011;4757;59.334;18.034;2022-12-20T08:35:31;6.63;;;4.87;;
9436;SDS011;4757;59.334;18.034;2022-12-20T08:37:58;7.57;;;6.27;;
9436;SDS011;4757;59.334;18.034;2022-12-20T08:40:25;7.17;;;5.40;;
9436;SDS011;4757;59.334;18.034;2022-12-20T08:42:52;5.97;;;4.57;;
9436;SDS011;4757;59.334;18.034;2022-12-20T08:45:20;8.13;;;5.30;;
9436;SDS011;4757;59.334;18.034;2022-12-20T08:47:47;8.17;;;4.93;;
9436;SDS011;4757;59.334;18.034;2022-12-20T08:50:14;5.47;;;4.73;;
9436;SDS011;4757;59.334;18.034;2022-12-20T08:52:41;5.77;;;4.23;;
9436;SDS011;4757;59.334;18.034;2022-12-20T08:55:08;5.73;;;5.07;;
9436;SDS011;4757;59.334;18.034;2022-12-20T08:57:38;6.80;;;4.80;;
9436;SDS011;4757;59.334;18.034;2022-12-20T09:00:05;7.20;;;4.63;;
9436;SDS011;4757;59.334;18.034;2022-12-20T09:02:33;5.10;;;4.37;;
9436;SDS011;4757;59.334;18.034;2022-12-20T09:05:00;6.87;;;4.13;;
9436;SDS011;4757;59.334;18.034;2022-12-20T09:07:30;4.60;;;4.17;;
9436;SDS011;4757;59.334;18.034;2022-12-20T09:09:57;6.43;;;4.40;;
9436;SDS011;4757;59.334;18.034;2022-12-20T09:12:24;5.47;;;4.97;;
9436;SDS011;4757;59.334;18.034;2022-12-20T09:14:51;11.37;;;4.50;;
9436;SDS011;4757;59.334;18.034;2022-12-20T09:17:18;6.73;;;5.00;;
9436;SDS011;4757;59.334;18.034;2022-12-20T09:19:45;5.03;;;3.43;;
9436;SDS011;4757;59.334;18.034;2022-12-20T09:22:12;10.40;;;7.13;;
9436;SDS011;4757;59.334;18.034;2022-12-20T09:24:39;8.17;;;5.60;;
9436;SDS011;4757;59.334;18.034;2022-12-20T09:27:06;8.60;;;4.70;;
9436;SDS011;4757;59.334;18.034;2022-12-20T09:29:33;6.60;;;4.50;;
9436;SDS011;4757;59.334;18.034;2022-12-20T09:32:01;7.47;;;5.43;;
9436;SDS011;4757;59.334;18.034;2022-12-20T09:34:28;5.77;;;4.57;;
9436;SDS011;4757;59.334;18.034;2022-12-20T09:36:55;5.90;;;4.03;;
9436;SDS011;4757;59.334;18.034;2022-12-20T09:39:22;6.93;;;5.37;;
9436;SDS011;4757;59.334;18.034;2022-12-20T09:41:49;7.03;;;4.47;;
9436;SDS011;4757;59.334;18.034;2022-12-20T09:44:23;10.23;;;6.73;;
9436;SDS011;4757;59.334;18.034;2022-12-20T09:49:55;9.17;;;5.00;;
9436;SDS011;4757;59.334;18.034;2022-12-20T10:00:25;10.30;;;5.63;;
9436;SDS011;4757;59.334;18.034;2022-12-20T10:02:54;10.37;;;5.07;;
9436;SDS011;4757;59.334;18.034;2022-12-20T10:05:37;7.37;;;5.20;;
9436;SDS011;4757;59.334;18.034;2022-12-20T10:10:56;7.43;;;4.63;;
9436;SDS011;4757;59.334;18.034;2022-12-20T10:13:37;5.03;;;3.63;;
9436;SDS011;4757;59.334;18.034;2022-12-20T10:26:28;9.60;;;4.67;;
9436;SDS011;4757;59.334;18.034;2022-12-20T10:29:00;5.43;;;4.57;;
9436;SDS011;4757;59.334;18.034;2022-12-20T10:31:27;6.23;;;4.73;;
9436;SDS011;4757;59.334;18.034;2022-12-20T10:34:05;5.53;;;4.40;;
9436;SDS011;4757;59.334;18.034;2022-12-20T10:36:34;5.37;;;4.40;;
9436;SDS011;4757;59.334;18.034;2022-12-20T10:39:07;5.57;;;5.00;;
9436;SDS011;4757;59.334;18.034;2022-12-20T10:44:24;5.10;;;3.77;;
9436;SDS011;4757;59.334;18.034;2022-12-20T10:46:57;6.20;;;3.13;;
9436;SDS011;4757;59.334;18.034;2022-12-20T10:52:07;6.90;;;4.30;;
9436;SDS011;4757;59.334;18.034;2022-12-20T10:54:41;5.33;;;4.50;;
9436;SDS011;4757;59.334;18.034;2022-12-20T10:59:48;5.50;;;4.97;;
9436;SDS011;4757;59.334;18.034;2022-12-20T11:02:24;5.70;;;5.10;;
9436;SDS011;4757;59.334;18.034;2022-12-20T11:07:50;5.30;;;4.80;;
9436;SDS011;4757;59.334;18.034;2022-12-20T11:10:41;6.43;;;4.77;;
9436;SDS011;4757;59.334;18.034;2022-12-20T11:13:20;6.07;;;4.30;;
9436;SDS011;4757;59.334;18.034;2022-12-20T11:15:52;5.23;;;4.43;;
9436;SDS011;4757;59.334;18.034;2022-12-20T11:18:37;5.80;;;4.73;;
9436;SDS011;4757;59.334;18.034;2022-12-20T11:21:22;6.50;;;5.90;;
9436;SDS011;4757;59.334;18.034;2022-12-20T11:40:47;5.37;;;4.87;;
9436;SDS011;4757;59.334;18.034;2022-12-20T11:51:22;5.47;;;4.97;;
9436;SDS011;4757;59.334;18.034;2022-12-20T11:54:11;8.33;;;6.07;;
9436;SDS011;4757;59.334;18.034;2022-12-20T11:57:04;6.70;;;5.23;;
9436;SDS011;4757;59.334;18.034;2022-12-20T11:59:53;5.83;;;5.20;;
9436;SDS011;4757;59.334;18.034;2022-12-20T12:02:33;7.13;;;6.10;;
9436;SDS011;4757;59.334;18.034;2022-12-20T12:05:27;6.33;;;4.80;;
9436;SDS011;4757;59.334;18.034;2022-12-20T12:08:03;7.67;;;5.60;;
9436;SDS011;4757;59.334;18.034;2022-12-20T12:10:45;5.40;;;4.80;;
9436;SDS011;4757;59.334;18.034;2022-12-20T12:13:23;5.63;;;5.10;;
9436;SDS011;4757;59.334;18.034;2022-12-20T12:16:09;6.60;;;5.50;;
9436;SDS011;4757;59.334;18.034;2022-12-20T12:18:46;5.47;;;4.90;;
9436;SDS011;4757;59.334;18.034;2022-12-20T12:21:24;7.17;;;4.47;;
9436;SDS011;4757;59.334;18.034;2022-12-20T12:24:06;6.27;;;4.33;;
9436;SDS011;4757;59.334;18.034;2022-12-20T12:26:43;9.63;;;5.63;;
9436;SDS011;4757;59.334;18.034;2022-12-20T12:29:11;5.53;;;4.63;;
9436;SDS011;4757;59.334;18.034;2022-12-20T12:45:57;7.23;;;5.10;;
9436;SDS011;4757;59.334;18.034;2022-12-20T12:48:33;4.67;;;4.27;;
9436;SDS011;4757;59.334;18.034;2022-12-20T12:51:07;5.03;;;4.53;;
9436;SDS011;4757;59.334;18.034;2022-12-20T12:53:36;4.77;;;4.30;;
9436;SDS011;4757;59.334;18.034;2022-12-20T13:09:59;5.07;;;4.57;;
9436;SDS011;4757;59.334;18.034;2022-12-20T13:12:56;5.67;;;4.13;;
9436;SDS011;4757;59.334;18.034;2022-12-20T13:20:42;4.60;;;3.77;;
9436;SDS011;4757;59.334;18.034;2022-12-20T13:23:29;5.50;;;3.77;;
9436;SDS011;4757;59.334;18.034;2022-12-20T13:25:56;4.37;;;3.97;;
9436;SDS011;4757;59.334;18.034;2022-12-20T13:33:39;6.07;;;3.60;;
9436;SDS011;4757;59.334;18.034;2022-12-20T13:36:30;5.70;;;5.10;;
9436;SDS011;4757;59.334;18.034;2022-12-20T13:41:50;5.20;;;4.00;;
9436;SDS011;4757;59.334;18.034;2022-12-20T13:44:43;6.40;;;4.03;;
9436;SDS011;4757;59.334;18.034;2022-12-20T13:49:58;4.70;;;4.30;;
9436;SDS011;4757;59.334;18.034;2022-12-20T13:52:29;6.33;;;4.23;;
9436;SDS011;4757;59.334;18.034;2022-12-20T13:54:59;4.37;;;3.97;;
9436;SDS011;4757;59.334;18.034;2022-12-20T13:57:41;5.07;;;4.07;;
9436;SDS011;4757;59.334;18.034;2022-12-20T14:00:16;4.73;;;4.03;;
9436;SDS011;4757;59.334;18.034;2022-12-20T14:02:47;4.40;;;4.00;;
9436;SDS011;4757;59.334;18.034;2022-12-20T14:07:57;6.73;;;4.33;;
9436;SDS011;4757;59.334;18.034;2022-12-20T14:10:31;6.50;;;4.33;;
9436;SDS011;4757;59.334;18.034;2022-12-20T14:13:00;9.57;;;4.90;;
9436;SDS011;4757;59.334;18.034;2022-12-20T14:18:06;6.50;;;4.50;;
9436;SDS011;4757;59.334;18.034;2022-12-20T14:20:45;6.60;;;5.63;;
9436;SDS011;4757;59.334;18.034;2022-12-20T14:23:16;5.70;;;4.20;;
9436;SDS011;4757;59.334;18.034;2022-12-20T14:25:48;5.20;;;4.37;;
9436;SDS011;4757;59.334;18.034;2022-12-20T14:31:04;5.93;;;4.60;;
9436;SDS011;4757;59.334;18.034;2022-12-20T14:33:37;4.67;;;4.17;;
9436;SDS011;4757;59.334;18.034;2022-12-20T14:36:07;5.13;;;4.53;;
9436;SDS011;4757;59.334;18.034;2022-12-20T14:38:42;5.13;;;4.63;;
9436;SDS011;4757;59.334;18.034;2022-12-20T14:43:58;4.67;;;4.27;;
9436;SDS011;4757;59.334;18.034;2022-12-20T14:46:38;6.17;;;5.20;;
9436;SDS011;4757;59.334;18.034;2022-12-20T14:49:19;7.17;;;4.63;;
9436;SDS011;4757;59.334;18.034;2022-12-20T14:54:43;9.43;;;5.03;;
9436;SDS011;4757;59.334;18.034;2022-12-20T15:02:51;15.03;;;9.77;;
9436;SDS011;4757;59.334;18.034;2022-12-20T15:13:22;6.87;;;5.90;;
9436;SDS011;4757;59.334;18.034;2022-12-20T15:15:54;8.50;;;5.50;;
9436;SDS011;4757;59.334;18.034;2022-12-20T15:18:23;9.23;;;6.13;;
9436;SDS011;4757;59.334;18.034;2022-12-20T15:20:58;8.00;;;6.13;;
9436;SDS011;4757;59.334;18.034;2022-12-20T15:23:28;7.83;;;5.77;;
9436;SDS011;4757;59.334;18.034;2022-12-20T15:25:55;7.47;;;5.00;;
9436;SDS011;4757;59.334;18.034;2022-12-20T15:28:23;10.17;;;5.63;;
9436;SDS011;4757;59.334;18.034;2022-12-20T15:30:52;9.70;;;5.67;;
9436;SDS011;4757;59.334;18.034;2022-12-20T15:33:26;7.17;;;6.03;;
9436;SDS011;4757;59.334;18.034;2022-12-20T15:35:57;11.27;;;6.80;;
9436;SDS011;4757;59.334;18.034;2022-12-20T15:38:25;8.57;;;6.60;;
9436;SDS011;4757;59.334;18.034;2022-12-20T15:41:15;8.23;;;6.63;;
9436;SDS011;4757;59.334;18.034;2022-12-20T15:43:43;9.27;;;6.50;;
9436;SDS011;4757;59.334;18.034;2022-12-20T15:46:10;8.00;;;5.83;;
9436;SDS011;4757;59.334;18.034;2022-12-20T15:48:37;8.53;;;6.30;;
9436;SDS011;4757;59.334;18.034;2022-12-20T15:51:23;9.57;;;6.17;;
9436;SDS011;4757;59.334;18.034;2022-12-20T15:54:04;7.53;;;4.87;;
9436;SDS011;4757;59.334;18.034;2022-12-20T15:56:34;9.07;;;6.27;;
9436;SDS011;4757;59.334;18.034;2022-12-20T15:59:02;8.63;;;5.33;;
9436;SDS011;4757;59.334;18.034;2022-12-20T16:01:49;11.03;;;5.93;;
9436;SDS011;4757;59.334;18.034;2022-12-20T16:04:17;6.83;;;5.43;;
9436;SDS011;4757;59.334;18.034;2022-12-20T16:06:46;8.20;;;5.63;;
9436;SDS011;4757;59.334;18.034;2022-12-20T16:09:15;8.97;;;6.60;;
9436;SDS011;4757;59.334;18.034;2022-12-20T16:11:43;7.27;;;5.70;;
9436;SDS011;4757;59.334;18.034;2022-12-20T16:14:15;10.77;;;5.90;;
9436;SDS011;4757;59.334;18.034;2022-12-20T16:16:45;10.20;;;7.73;;
9436;SDS011;4757;59.334;18.034;2022-12-20T16:19:15;8.13;;;6.77;;
9436;SDS011;4757;59.334;18.034;2022-12-20T16:21:47;10.40;;;7.53;;
9436;SDS011;4757;59.334;18.034;2022-12-20T16:24:17;10.60;;;7.67;;
9436;SDS011;4757;59.334;18.034;2022-12-20T16:26:47;10.17;;;6.40;;
9436;SDS011;4757;59.334;18.034;2022-12-20T16:29:14;11.70;;;6.87;;
9436;SDS011;4757;59.334;18.034;2022-12-20T16:31:41;10.73;;;7.60;;
9436;SDS011;4757;59.334;18.034;2022-12-20T16:34:11;11.07;;;6.60;;
9436;SDS011;4757;59.334;18.034;2022-12-20T16:36:41;11.97;;;7.13;;
9436;SDS011;4757;59.334;18.034;2022-12-20T16:39:10;11.33;;;7.03;;
9436;SDS011;4757;59.334;18.034;2022-12-20T16:41:38;13.33;;;8.43;;
9436;SDS011;4757;59.334;18.034;2022-12-20T16:44:09;12.47;;;7.77;;
9436;SDS011;4757;59.334;18.034;2022-12-20T16:46:41;12.83;;;7.23;;
9436;SDS011;4757;59.334;18.034;2022-12-20T16:49:10;14.73;;;9.10;;
9436;SDS011;4757;59.334;18.034;2022-12-20T16:51:46;14.63;;;7.97;;
9436;SDS011;4757;59.334;18.034;2022-12-20T16:54:15;19.53;;;13.27;;
9436;SDS011;4757;59.334;18.034;2022-12-20T16:56:50;13.23;;;6.57;;
9436;SDS011;4757;59.334;18.034;2022-12-20T16:59:22;12.60;;;6.87;;
9436;SDS011;4757;59.334;18.034;2022-12-20T17:01:51;10.53;;;7.03;;
9436;SDS011;4757;59.334;18.034;2022-12-20T17:04:20;14.37;;;7.20;;
9436;SDS011;4757;59.334;18.034;2022-12-20T17:06:47;9.33;;;6.97;;
9436;SDS011;4757;59.334;18.034;2022-12-20T17:09:15;11.33;;;6.80;;
9436;SDS011;4757;59.334;18.034;2022-12-20T17:12:02;14.23;;;8.30;;
9436;SDS011;4757;59.334;18.034;2022-12-20T17:14:31;9.70;;;7.43;;
9436;SDS011;4757;59.334;18.034;2022-12-20T17:16:58;9.50;;;6.97;;
9436;SDS011;4757;59.334;18.034;2022-12-20T17:19:25;10.17;;;7.47;;
9436;SDS011;4757;59.334;18.034;2022-12-20T17:21:52;9.60;;;6.33;;
9436;SDS011;4757;59.334;18.034;2022-12-20T17:24:37;11.83;;;7.07;;
9436;SDS011;4757;59.334;18.034;2022-12-20T17:27:05;12.03;;;6.90;;
9436;SDS011;4757;59.334;18.034;2022-12-20T17:29:32;10.67;;;6.37;;
9436;SDS011;4757;59.334;18.034;2022-12-20T17:32:00;8.53;;;5.70;;
9436;SDS011;4757;59.334;18.034;2022-12-20T17:34:29;11.60;;;7.37;;